createdAt,value
2018-10-21T00:00:57.773Z,10.70
2018-10-21T00:03:26.339Z,10.80
2018-10-21T00:05:54.684Z,10.80
2018-10-21T00:08:23.790Z,10.80
2018-10-21T00:10:52.158Z,10.80
2018-10-21T00:13:20.534Z,10.80
2018-10-21T00:15:48.979Z,10.80
2018-10-21T00:18:17.327Z,10.80
2018-10-21T00:20:45.741Z,10.80
2018-10-21T00:23:14.216Z,10.90
2018-10-21T00:25:42.587Z,10.90
2018-10-21T00:28:10.979Z,10.80
2018-10-21T00:30:39.457Z,10.80
2018-10-21T00:33:07.939Z,10.80
2018-10-21T00:35:36.271Z,10.80
2018-10-21T00:38:05.417Z,10.80
2018-10-21T00:40:33.871Z,10.80
2018-10-21T00:43:02.206Z,10.80
2018-10-21T00:45:30.683Z,10.80
2018-10-21T00:47:59.040Z,10.80
2018-10-21T00:50:27.392Z,10.80
2018-10-21T00:52:55.738Z,10.80
2018-10-21T00:55:24.127Z,10.80
2018-10-21T00:57:52.492Z,10.80
2018-10-21T01:00:20.890Z,10.80
2018-10-21T01:02:49.998Z,10.90
2018-10-21T01:05:18.348Z,10.80
2018-10-21T01:07:46.748Z,10.80
2018-10-21T01:10:15.050Z,10.90
2018-10-21T01:12:43.424Z,10.80
2018-10-21T01:15:11.827Z,10.80
2018-10-21T01:17:40.150Z,10.90
2018-10-21T01:20:09.296Z,10.90
2018-10-21T01:22:37.640Z,10.80
2018-10-21T01:25:06.061Z,10.80
2018-10-21T01:27:34.448Z,10.90
2018-10-21T01:30:02.803Z,10.90
2018-10-21T01:32:31.136Z,10.90
2018-10-21T01:34:59.522Z,10.90
2018-10-21T01:37:28.760Z,10.90
2018-10-21T01:42:51.935Z,10.90
2018-10-21T01:45:20.309Z,10.90
2018-10-21T01:47:48.688Z,10.90
2018-10-21T01:50:17.069Z,10.90
2018-10-21T01:52:45.450Z,10.90
2018-10-21T01:55:13.855Z,10.90
2018-10-21T01:57:42.235Z,10.90
2018-10-21T02:00:10.587Z,10.90
2018-10-21T02:02:38.995Z,10.80
2018-10-21T02:05:07.337Z,10.80
2018-10-21T02:07:36.479Z,10.80
2018-10-21T02:10:04.959Z,10.80
2018-10-21T02:12:33.330Z,10.80
2018-10-21T02:15:01.846Z,10.80
2018-10-21T02:17:30.141Z,10.80
2018-10-21T02:19:59.283Z,10.80
2018-10-21T02:22:27.740Z,10.80
2018-10-21T02:24:56.164Z,10.80
2018-10-21T02:27:24.601Z,10.70
2018-10-21T02:29:52.975Z,10.70
2018-10-21T02:32:21.464Z,10.70
2018-10-21T02:34:49.808Z,10.70
2018-10-21T02:37:18.159Z,10.70
2018-10-21T02:39:46.509Z,10.80
2018-10-21T02:42:14.978Z,10.80
2018-10-21T02:44:44.103Z,10.80
2018-10-21T02:47:12.456Z,10.80
2018-10-21T02:49:40.942Z,10.80
2018-10-21T02:52:09.282Z,10.80
2018-10-21T02:54:37.623Z,10.80
2018-10-21T02:57:06.061Z,10.80
2018-10-21T02:59:34.459Z,10.80
2018-10-21T03:02:02.819Z,10.80
2018-10-21T03:04:31.210Z,10.80
2018-10-21T03:06:59.611Z,10.80
2018-10-21T03:09:27.999Z,10.70
2018-10-21T03:11:56.341Z,10.80
2018-10-21T03:14:25.446Z,10.70
2018-10-21T03:16:53.845Z,10.70
2018-10-21T03:19:22.183Z,10.70
2018-10-21T03:21:51.307Z,10.70
2018-10-21T03:24:19.701Z,10.70
2018-10-21T03:26:48.031Z,10.70
2018-10-21T03:29:16.407Z,10.70
2018-10-21T03:31:44.747Z,10.70
2018-10-21T03:34:13.133Z,10.70
2018-10-21T03:36:41.527Z,10.70
2018-10-21T03:39:09.936Z,10.70
2018-10-21T03:41:39.173Z,10.60
2018-10-21T03:44:07.571Z,10.60
2018-10-21T03:46:35.925Z,10.60
2018-10-21T03:49:04.307Z,10.60
2018-10-21T03:51:32.745Z,10.60
2018-10-21T03:54:01.087Z,10.60
2018-10-21T03:56:29.557Z,10.60
2018-10-21T03:58:57.947Z,10.60
2018-10-21T04:01:26.282Z,10.50
2018-10-21T04:03:54.702Z,10.50
2018-10-21T04:06:23.071Z,10.50
2018-10-21T04:08:51.416Z,10.50
2018-10-21T04:11:20.603Z,10.50
2018-10-21T04:13:49.727Z,10.50
2018-10-21T04:16:18.179Z,10.50
2018-10-21T04:18:46.486Z,10.50
2018-10-21T04:21:14.833Z,10.50
2018-10-21T04:23:43.197Z,10.50
2018-10-21T04:26:11.637Z,10.40
2018-10-21T04:28:40.019Z,10.40
2018-10-21T04:31:08.387Z,10.40
2018-10-21T04:33:36.779Z,10.40
2018-10-21T04:36:05.163Z,10.40
2018-10-21T04:38:41.487Z,10.30
2018-10-21T04:41:10.616Z,10.30
2018-10-21T04:43:38.997Z,10.30
2018-10-21T04:46:07.446Z,10.30
2018-10-21T04:48:35.711Z,10.20
2018-10-21T04:51:04.119Z,10.20
2018-10-21T04:53:32.515Z,10.20
2018-10-21T04:56:00.881Z,10.20
2018-10-21T04:58:30.191Z,10.20
2018-10-21T05:00:58.577Z,10.20
2018-10-21T05:03:26.953Z,10.20
2018-10-21T05:05:55.436Z,10.20
2018-10-21T05:08:23.780Z,10.20
2018-10-21T05:10:52.917Z,10.20
2018-10-21T05:13:21.298Z,10.20
2018-10-21T05:15:49.695Z,10.30
2018-10-21T05:18:18.052Z,10.30
2018-10-21T05:20:46.495Z,10.30
2018-10-21T05:23:15.619Z,10.30
2018-10-21T05:25:44.013Z,10.30
2018-10-21T05:28:12.395Z,10.30
2018-10-21T05:30:40.861Z,10.30
2018-10-21T05:33:09.205Z,10.30
2018-10-21T05:35:37.638Z,10.30
2018-10-21T05:38:06.042Z,10.30
2018-10-21T05:40:34.372Z,10.30
2018-10-21T05:43:03.581Z,10.30
2018-10-21T05:45:31.927Z,10.30
2018-10-21T05:48:00.299Z,10.30
2018-10-21T05:50:28.648Z,10.30
2018-10-21T05:52:57.023Z,10.30
2018-10-21T05:55:25.376Z,10.30
2018-10-21T05:57:53.805Z,10.30
2018-10-21T06:00:22.163Z,10.30
2018-10-21T06:02:50.575Z,10.30
2018-10-21T06:05:18.909Z,10.30
2018-10-21T06:07:47.302Z,10.30
2018-10-21T06:10:15.774Z,10.30
2018-10-21T06:12:44.061Z,10.30
2018-10-21T06:15:12.410Z,10.30
2018-10-21T06:17:40.793Z,10.30
2018-10-21T06:20:09.132Z,10.20
2018-10-21T06:22:37.557Z,10.20
2018-10-21T06:25:05.928Z,10.30
2018-10-21T06:27:34.354Z,10.20
2018-10-21T06:30:02.697Z,10.20
2018-10-21T06:32:31.066Z,10.20
2018-10-21T06:34:59.451Z,10.20
2018-10-21T06:37:27.829Z,10.20
2018-10-21T06:39:56.258Z,10.30
2018-10-21T06:42:24.593Z,10.30
2018-10-21T06:44:53.013Z,10.30
2018-10-21T06:47:21.372Z,10.30
2018-10-21T06:49:49.711Z,10.30
2018-10-21T06:52:18.112Z,10.30
2018-10-21T06:54:46.457Z,10.40
2018-10-21T06:57:15.704Z,10.40
2018-10-21T06:59:43.986Z,10.40
2018-10-21T07:02:12.447Z,10.40
2018-10-21T07:04:40.908Z,10.40
2018-10-21T07:07:09.176Z,10.40
2018-10-21T07:09:37.605Z,10.50
2018-10-21T07:12:05.984Z,10.50
2018-10-21T07:14:34.342Z,10.60
2018-10-21T07:17:02.702Z,10.60
2018-10-21T07:19:31.104Z,10.70
2018-10-21T07:21:59.537Z,10.80
2018-10-21T07:24:27.862Z,10.80
2018-10-21T07:26:56.248Z,10.90
2018-10-21T07:29:24.702Z,11.00
2018-10-21T07:31:53.122Z,11.00
2018-10-21T07:34:21.464Z,11.10
2018-10-21T07:36:49.810Z,11.20
2018-10-21T07:39:18.399Z,11.20
2018-10-21T07:41:46.734Z,11.30
2018-10-21T07:44:15.189Z,11.30
2018-10-21T07:46:43.560Z,11.40
2018-10-21T07:49:12.778Z,11.60
2018-10-21T07:51:41.087Z,11.60
2018-10-21T07:54:09.434Z,11.70
2018-10-21T07:56:37.896Z,11.80
2018-10-21T07:59:07.019Z,12.00
2018-10-21T08:01:35.386Z,12.00
2018-10-21T08:04:03.814Z,12.00
2018-10-21T08:06:44.153Z,12.10
2018-10-21T08:09:12.553Z,12.10
2018-10-21T08:11:40.936Z,12.10
2018-10-21T08:14:09.289Z,12.10
2018-10-21T08:16:37.644Z,12.10
2018-10-21T08:19:06.010Z,12.10
2018-10-21T08:21:34.392Z,12.20
2018-10-21T08:24:02.741Z,12.20
2018-10-21T08:26:31.106Z,12.30
2018-10-21T08:28:59.557Z,12.40
2018-10-21T08:31:27.930Z,12.50
2018-10-21T08:33:56.297Z,12.70
2018-10-21T08:36:24.720Z,12.80
2018-10-21T08:38:53.099Z,12.90
2018-10-21T08:41:21.436Z,13.10
2018-10-21T08:43:49.853Z,13.10
2018-10-21T08:46:18.248Z,13.30
2018-10-21T08:48:46.602Z,13.30
2018-10-21T08:51:14.932Z,13.40
2018-10-21T08:53:44.038Z,13.50
2018-10-21T08:56:12.428Z,13.50
2018-10-21T08:58:40.793Z,13.50
2018-10-21T09:01:09.182Z,13.40
2018-10-21T09:03:37.511Z,13.30
2018-10-21T09:06:05.895Z,13.30
2018-10-21T09:08:34.235Z,13.20
2018-10-21T09:11:02.710Z,13.20
2018-10-21T09:13:30.991Z,13.30
2018-10-21T09:15:59.436Z,13.20
2018-10-21T09:18:27.744Z,13.20
2018-10-21T09:20:56.210Z,13.20
2018-10-21T09:23:24.993Z,13.20
2018-10-21T09:25:53.431Z,13.20
2018-10-21T09:28:21.896Z,13.20
2018-10-21T09:30:50.294Z,13.30
2018-10-21T09:33:18.680Z,13.40
2018-10-21T09:35:46.982Z,13.40
2018-10-21T09:38:15.416Z,13.60
2018-10-21T09:40:43.889Z,13.70
2018-10-21T09:43:12.379Z,13.80
2018-10-21T09:45:40.648Z,13.90
2018-10-21T09:48:09.036Z,13.90
2018-10-21T09:50:37.538Z,13.90
2018-10-21T09:53:05.937Z,13.90
2018-10-21T09:55:34.382Z,13.90
2018-10-21T09:58:02.799Z,13.90
2018-10-21T10:00:31.162Z,13.90
2018-10-21T10:02:59.516Z,14.00
2018-10-21T10:05:28.099Z,14.10
2018-10-21T10:07:56.470Z,14.30
2018-10-21T10:10:24.872Z,14.50
2018-10-21T10:12:53.227Z,14.60
2018-10-21T10:15:21.555Z,14.80
2018-10-21T10:17:50.073Z,14.90
2018-10-21T10:20:18.331Z,15.10
2018-10-21T10:22:47.562Z,15.40
2018-10-21T10:25:16.036Z,15.30
2018-10-21T10:27:44.383Z,15.40
2018-10-21T10:30:12.759Z,15.60
2018-10-21T10:32:41.219Z,15.70
2018-10-21T10:35:09.567Z,15.70
2018-10-21T10:37:38.056Z,15.70
2018-10-21T10:40:06.465Z,15.90
2018-10-21T10:42:34.804Z,16.00
2018-10-21T10:45:03.171Z,16.20
2018-10-21T10:47:31.569Z,16.30
2018-10-21T10:49:59.948Z,16.30
2018-10-21T10:52:28.333Z,16.40
2018-10-21T10:54:56.746Z,16.70
2018-10-21T10:57:25.059Z,16.80
2018-10-21T10:59:53.484Z,17.40
2018-10-21T11:02:21.787Z,18.20
2018-10-21T11:04:50.133Z,19.00
2018-10-21T11:07:18.526Z,19.90
2018-10-21T11:09:46.883Z,20.70
2018-10-21T11:12:15.294Z,21.30
2018-10-21T11:14:43.843Z,20.20
2018-10-21T11:17:12.223Z,20.10
2018-10-21T11:19:40.563Z,20.80
2018-10-21T11:22:09.827Z,20.00
2018-10-21T11:24:38.141Z,20.00
2018-10-21T11:27:06.497Z,19.30
2018-10-21T11:29:34.874Z,19.50
2018-10-21T11:32:03.297Z,19.10
2018-10-21T11:34:31.698Z,19.00
2018-10-21T11:37:00.217Z,18.10
2018-10-21T11:39:28.560Z,18.30
2018-10-21T11:41:56.924Z,18.10
2018-10-21T11:44:25.305Z,17.60
2018-10-21T11:46:53.668Z,17.40
2018-10-21T11:49:22.082Z,17.00
2018-10-21T11:51:50.481Z,16.80
2018-10-21T11:54:18.901Z,16.70
2018-10-21T11:56:48.045Z,16.10
2018-10-21T11:59:16.409Z,16.10
2018-10-21T12:01:44.799Z,15.80
2018-10-21T12:04:13.205Z,15.70
2018-10-21T12:06:41.631Z,15.80
2018-10-21T12:09:09.985Z,15.90
2018-10-21T12:11:39.115Z,16.30
2018-10-21T12:14:07.494Z,16.30
2018-10-21T12:16:35.897Z,16.40
2018-10-21T12:19:04.285Z,16.90
2018-10-21T12:21:32.605Z,17.60
2018-10-21T12:24:01.738Z,18.30
2018-10-21T12:26:30.317Z,18.20
2018-10-21T12:28:58.712Z,18.50
2018-10-21T12:31:27.049Z,18.60
2018-10-21T12:33:56.175Z,18.90
2018-10-21T12:36:24.548Z,18.90
2018-10-21T12:38:52.927Z,19.40
2018-10-21T12:41:21.310Z,20.40
2018-10-21T12:43:49.655Z,20.40
2018-10-21T12:46:18.779Z,21.30
2018-10-21T12:48:47.132Z,21.30
2018-10-21T12:51:16.264Z,21.80
2018-10-21T12:53:44.643Z,21.80
2018-10-21T12:56:13.029Z,22.20
2018-10-21T12:58:41.367Z,23.20
2018-10-21T13:01:10.514Z,23.70
2018-10-21T13:03:39.593Z,22.60
2018-10-21T13:06:07.936Z,22.50
2018-10-21T13:08:36.331Z,22.80
2018-10-21T13:11:04.725Z,23.10
2018-10-21T13:13:33.118Z,23.80
2018-10-21T13:16:01.496Z,24.50
2018-10-21T13:18:29.881Z,24.40
2018-10-21T13:20:58.295Z,24.10
2018-10-21T13:23:26.641Z,23.30
2018-10-21T13:25:55.000Z,22.50
2018-10-21T13:28:23.515Z,22.50
2018-10-21T13:30:51.752Z,22.40
2018-10-21T13:33:20.097Z,22.90
2018-10-21T13:35:48.528Z,23.00
2018-10-21T13:38:16.876Z,23.10
2018-10-21T13:40:46.107Z,21.40
2018-10-21T13:43:14.619Z,21.30
2018-10-21T13:45:43.041Z,20.70
2018-10-21T13:48:11.321Z,20.40
2018-10-21T13:50:39.721Z,20.10
2018-10-21T13:53:08.193Z,19.50
2018-10-21T13:55:37.495Z,19.10
2018-10-21T13:58:05.905Z,18.70
2018-10-21T14:00:35.089Z,17.90
2018-10-21T14:03:03.310Z,17.90
2018-10-21T14:05:31.725Z,17.80
2018-10-21T14:08:00.087Z,17.60
2018-10-21T14:10:29.208Z,17.20
2018-10-21T14:12:57.634Z,17.20
2018-10-21T14:15:26.031Z,17.10
2018-10-21T14:17:54.367Z,17.00
2018-10-21T14:20:22.725Z,16.90
2018-10-21T14:22:52.637Z,16.80
2018-10-21T14:25:20.987Z,16.80
2018-10-21T14:27:49.413Z,16.80
2018-10-21T14:30:17.823Z,16.70
2018-10-21T14:32:46.121Z,16.60
2018-10-21T14:35:15.277Z,16.80
2018-10-21T14:37:43.673Z,16.80
2018-10-21T14:40:12.011Z,16.80
2018-10-21T14:42:40.506Z,16.60
2018-10-21T14:45:08.873Z,16.60
2018-10-21T14:47:37.218Z,16.40
2018-10-21T14:50:06.088Z,16.30
2018-10-21T14:52:34.456Z,16.20
2018-10-21T14:55:02.866Z,16.10
2018-10-21T14:57:31.293Z,16.00
2018-10-21T14:59:59.771Z,15.80
2018-10-21T15:02:28.104Z,15.70
2018-10-21T15:04:56.525Z,15.70
2018-10-21T15:07:25.082Z,15.60
2018-10-21T15:09:54.265Z,15.60
2018-10-21T15:12:22.635Z,15.60
2018-10-21T15:14:50.965Z,15.60
2018-10-21T15:17:19.391Z,15.60
2018-10-21T15:19:47.785Z,15.60
2018-10-21T15:22:16.265Z,15.60
2018-10-21T15:24:44.599Z,15.70
2018-10-21T15:27:12.945Z,15.60
2018-10-21T15:29:42.191Z,15.60
2018-10-21T15:32:10.534Z,15.60
2018-10-21T15:34:39.739Z,15.60
2018-10-21T15:37:08.155Z,15.70
2018-10-21T15:39:36.535Z,15.60
2018-10-21T15:42:04.978Z,15.50
2018-10-21T15:44:34.107Z,15.50
2018-10-21T15:47:02.509Z,15.50
2018-10-21T15:49:30.880Z,15.40
2018-10-21T15:51:59.401Z,15.30
2018-10-21T15:54:27.715Z,15.20
2018-10-21T15:56:56.129Z,15.10
2018-10-21T15:59:24.509Z,15.00
2018-10-21T16:01:52.946Z,14.90
2018-10-21T16:04:21.422Z,14.80
2018-10-21T16:06:49.772Z,14.70
2018-10-21T16:09:18.907Z,14.50
2018-10-21T16:11:47.294Z,14.50
2018-10-21T16:14:15.655Z,14.40
2018-10-21T16:16:44.064Z,14.30
2018-10-21T16:19:12.448Z,14.20
2018-10-21T16:21:40.917Z,14.10
2018-10-21T16:24:09.254Z,14.10
2018-10-21T16:26:38.404Z,13.90
2018-10-21T16:29:06.822Z,13.90
2018-10-21T16:31:36.067Z,13.70
2018-10-21T16:34:05.206Z,13.60
2018-10-21T16:36:33.546Z,13.60
2018-10-21T16:39:01.894Z,13.50
2018-10-21T16:41:30.253Z,13.40
2018-10-21T16:43:59.415Z,13.20
2018-10-21T16:46:27.760Z,13.20
2018-10-21T16:48:56.082Z,13.10
2018-10-21T16:51:24.616Z,13.00
2018-10-21T16:53:52.933Z,13.00
2018-10-21T16:56:21.371Z,12.90
2018-10-21T16:58:49.766Z,12.80
2018-10-21T17:01:18.288Z,12.70
2018-10-21T17:03:47.104Z,12.70
2018-10-21T17:06:15.712Z,12.60
2018-10-21T17:08:44.824Z,12.40
2018-10-21T17:11:13.235Z,12.40
2018-10-21T17:13:41.717Z,12.30
2018-10-21T17:16:10.254Z,12.20
2018-10-21T17:18:38.657Z,12.20
2018-10-21T17:21:07.035Z,12.10
2018-10-21T17:23:35.377Z,12.10
2018-10-21T17:26:04.214Z,12.10
2018-10-21T17:28:32.561Z,12.00
2018-10-21T17:31:01.005Z,12.00
2018-10-21T17:33:29.298Z,12.00
2018-10-21T17:35:58.419Z,12.00
2018-10-21T17:38:26.784Z,11.90
2018-10-21T17:40:55.905Z,11.90
2018-10-21T17:43:24.275Z,11.90
2018-10-21T17:45:52.624Z,11.90
2018-10-21T17:48:21.884Z,11.90
2018-10-21T17:50:50.290Z,11.90
2018-10-21T17:53:19.525Z,11.80
2018-10-21T17:55:47.922Z,11.80
2018-10-21T17:58:16.391Z,11.80
2018-10-21T18:00:44.670Z,11.80
2018-10-21T18:03:13.038Z,11.80
2018-10-21T18:05:41.389Z,11.70
2018-10-21T18:08:09.779Z,11.70
2018-10-21T18:10:38.209Z,11.70
2018-10-21T18:13:06.591Z,11.70
2018-10-21T18:15:34.935Z,11.60
2018-10-21T18:18:03.349Z,11.60
2018-10-21T18:20:31.781Z,11.50
2018-10-21T18:23:00.112Z,11.50
2018-10-21T18:25:28.651Z,11.50
2018-10-21T18:27:57.857Z,11.40
2018-10-21T18:30:27.325Z,11.40
2018-10-21T18:32:58.396Z,11.30
2018-10-21T18:35:30.533Z,11.30
2018-10-21T18:38:00.107Z,11.30
2018-10-21T18:40:28.631Z,11.30
2018-10-21T18:42:57.071Z,11.30
2018-10-21T18:45:25.472Z,11.30
2018-10-21T18:47:53.873Z,11.30
2018-10-21T18:50:22.275Z,11.20
2018-10-21T18:52:51.423Z,11.20
2018-10-21T18:55:19.875Z,11.20
2018-10-21T18:57:48.222Z,11.20
2018-10-21T19:00:16.649Z,11.10
2018-10-21T19:02:45.002Z,11.10
2018-10-21T19:05:13.400Z,11.10
2018-10-21T19:07:41.804Z,11.00
2018-10-21T19:10:10.201Z,11.00
2018-10-21T19:12:39.370Z,11.00
2018-10-21T19:15:07.715Z,10.90
2018-10-21T19:17:36.096Z,10.90
2018-10-21T19:20:04.458Z,10.90
2018-10-21T19:22:32.957Z,10.90
2018-10-21T19:25:01.303Z,10.80
2018-10-21T19:27:29.754Z,10.80
2018-10-21T19:29:58.134Z,10.80
2018-10-21T19:32:26.517Z,10.70
2018-10-21T19:34:54.892Z,10.70
2018-10-21T19:37:23.295Z,10.70
2018-10-21T19:39:52.016Z,10.60
2018-10-21T19:42:20.428Z,10.60
2018-10-21T19:44:48.783Z,10.60
2018-10-21T19:47:17.205Z,10.60
2018-10-21T19:49:45.593Z,10.60
2018-10-21T19:52:14.903Z,10.60
2018-10-21T19:54:43.243Z,10.60
2018-10-21T19:57:12.336Z,10.60
2018-10-21T19:59:40.700Z,10.60
2018-10-21T20:02:09.851Z,10.50
2018-10-21T20:04:38.417Z,10.50
2018-10-21T20:07:06.903Z,10.50
2018-10-21T20:09:38.057Z,10.50
2018-10-21T20:12:16.235Z,10.50
2018-10-21T20:14:47.515Z,10.50
2018-10-21T20:17:16.864Z,10.40
2018-10-21T20:19:46.101Z,10.40
2018-10-21T20:22:15.967Z,10.40
2018-10-21T20:24:46.502Z,10.40
2018-10-21T20:27:15.439Z,10.40
2018-10-21T20:29:44.018Z,10.40
2018-10-21T20:32:12.426Z,10.40
2018-10-21T20:34:40.878Z,10.40
2018-10-21T20:37:09.444Z,10.40
2018-10-21T20:39:37.777Z,10.40
2018-10-21T20:42:06.467Z,10.30
2018-10-21T20:44:35.498Z,10.30
2018-10-21T20:47:04.590Z,10.30
2018-10-21T20:49:32.970Z,10.30
2018-10-21T20:52:01.348Z,10.30
2018-10-21T20:54:29.829Z,10.30
2018-10-21T20:56:58.300Z,10.30
2018-10-21T20:59:26.922Z,10.20
2018-10-21T21:01:56.931Z,10.20
2018-10-21T21:04:26.046Z,10.20
2018-10-21T21:06:54.629Z,10.20
2018-10-21T21:09:23.512Z,10.10
2018-10-21T21:11:51.885Z,10.10
2018-10-21T21:14:20.269Z,10.10
2018-10-21T21:16:48.646Z,10.10
2018-10-21T21:19:16.997Z,10.10
2018-10-21T21:21:45.367Z,10.10
2018-10-21T21:24:14.515Z,10.10
2018-10-21T21:26:42.866Z,10.00
2018-10-21T21:29:11.259Z,10.10
2018-10-21T21:31:39.654Z,10.00
2018-10-21T21:34:08.096Z,10.00
2018-10-21T21:36:36.430Z,10.00
2018-10-21T21:39:04.808Z,10.00
2018-10-21T21:41:33.148Z,10.00
2018-10-21T21:44:01.642Z,10.00
2018-10-21T21:46:29.968Z,10.00
2018-10-21T21:48:58.422Z,10.00
2018-10-21T21:51:26.760Z,9.90
2018-10-21T21:53:55.128Z,9.90
2018-10-21T21:56:23.456Z,9.90
2018-10-21T21:58:51.818Z,9.90
2018-10-21T22:01:20.154Z,9.90
2018-10-21T22:03:49.259Z,9.90
2018-10-21T22:06:17.712Z,9.90
2018-10-21T22:08:46.096Z,9.80
2018-10-21T22:11:15.203Z,9.80
2018-10-21T22:13:44.442Z,9.80
2018-10-21T22:16:12.891Z,9.80
2018-10-21T22:18:41.284Z,9.80
2018-10-21T22:21:09.716Z,9.80
2018-10-21T22:23:38.030Z,9.70
2018-10-21T22:26:07.163Z,9.70
2018-10-21T22:28:35.525Z,9.70
2018-10-21T22:31:03.868Z,9.70
2018-10-21T22:33:32.361Z,9.70
2018-10-21T22:36:00.848Z,9.70
2018-10-21T22:38:29.288Z,9.70
2018-10-21T22:40:57.703Z,9.70
2018-10-21T22:43:26.077Z,9.70
2018-10-21T22:45:54.516Z,9.70
2018-10-21T22:48:22.869Z,9.70
2018-10-21T22:50:51.321Z,9.70
2018-10-21T22:53:19.694Z,9.60
2018-10-21T22:55:48.025Z,9.60
2018-10-21T22:58:16.602Z,9.60
2018-10-21T23:00:44.910Z,9.60
2018-10-21T23:03:13.448Z,9.60
2018-10-21T23:05:42.580Z,9.60
2018-10-21T23:08:10.941Z,9.50
2018-10-21T23:10:39.275Z,9.50
2018-10-21T23:13:07.645Z,9.50
2018-10-21T23:15:35.976Z,9.50
2018-10-21T23:18:04.363Z,9.40
2018-10-21T23:20:32.731Z,9.40
2018-10-21T23:23:01.087Z,9.40
2018-10-21T23:25:30.190Z,9.40
2018-10-21T23:27:58.564Z,9.40
2018-10-21T23:30:26.882Z,9.40
2018-10-21T23:32:55.285Z,9.40
2018-10-21T23:35:23.725Z,9.30
2018-10-21T23:37:52.100Z,9.40
2018-10-21T23:40:20.528Z,9.30
2018-10-21T23:42:48.864Z,9.30
2018-10-21T23:45:17.217Z,9.30
2018-10-21T23:47:46.311Z,9.30
2018-10-21T23:50:15.419Z,9.30
2018-10-21T23:52:43.822Z,9.30
2018-10-21T23:55:12.171Z,9.30
2018-10-21T23:57:41.262Z,9.30
